createdAt,value
2022-08-20T00:01:04.531Z,88.85
2022-08-20T00:03:34.497Z,88.64
2022-08-20T00:06:31.751Z,88.58
2022-08-20T00:08:58.147Z,88.77
2022-08-20T00:11:26.405Z,88.78
2022-08-20T00:13:58.035Z,88.77
2022-08-20T00:16:26.897Z,88.76
2022-08-20T00:18:53.547Z,88.68
2022-08-20T00:21:21.668Z,88.84
2022-08-20T00:23:51.203Z,88.95
2022-08-20T00:26:19.050Z,88.65
2022-08-20T00:28:45.926Z,89.03
2022-08-20T00:31:16.136Z,88.99
2022-08-20T00:33:42.861Z,88.89
2022-08-20T00:36:10.767Z,88.76
2022-08-20T00:38:38.316Z,88.84
2022-08-20T00:41:05.420Z,89.13
2022-08-20T00:43:36.483Z,89.28
2022-08-20T00:46:07.292Z,88.56
2022-08-20T00:48:35.657Z,88.28
2022-08-20T00:51:18.731Z,88.37
2022-08-20T00:53:45.297Z,88.64
2022-08-20T00:56:12.645Z,88.89
2022-08-20T00:58:41.134Z,88.52
2022-08-20T01:01:08.171Z,89.00
2022-08-20T01:03:34.980Z,88.74
2022-08-20T01:06:01.384Z,88.36
2022-08-20T01:08:27.944Z,88.70
2022-08-20T01:11:08.087Z,88.56
2022-08-20T01:13:35.359Z,88.59
2022-08-20T01:16:03.926Z,88.50
2022-08-20T01:18:31.113Z,88.86
2022-08-20T01:21:03.126Z,88.92
2022-08-20T01:23:49.178Z,88.60
2022-08-20T01:26:18.492Z,89.04
2022-08-20T01:28:54.360Z,88.29
2022-08-20T01:31:23.572Z,87.93
2022-08-20T01:33:51.275Z,87.81
2022-08-20T01:36:20.592Z,87.38
2022-08-20T01:38:53.175Z,87.63
2022-08-20T01:41:36.397Z,86.96
2022-08-20T01:44:03.028Z,88.54
2022-08-20T01:46:36.722Z,88.26
2022-08-20T01:49:16.451Z,88.14
2022-08-20T01:51:50.851Z,88.28
2022-08-20T01:54:17.417Z,89.11
2022-08-20T01:56:51.848Z,89.01
2022-08-20T01:59:18.330Z,89.57
2022-08-20T02:01:46.294Z,88.85
2022-08-20T02:04:15.124Z,89.10
2022-08-20T02:06:56.315Z,88.40
2022-08-20T02:09:23.925Z,88.49
2022-08-20T02:11:50.362Z,89.22
2022-08-20T02:14:16.996Z,89.21
2022-08-20T02:16:54.678Z,89.26
2022-08-20T02:19:45.889Z,89.04
2022-08-20T02:22:33.176Z,88.77
2022-08-20T02:24:59.577Z,89.44
2022-08-20T02:27:26.004Z,88.77
2022-08-20T02:29:53.090Z,88.12
2022-08-20T02:32:32.436Z,87.97
2022-08-20T02:35:02.876Z,88.94
2022-08-20T02:37:29.745Z,88.66
2022-08-20T02:39:56.222Z,88.32
2022-08-20T02:42:22.765Z,88.68
2022-08-20T02:44:49.159Z,88.37
2022-08-20T02:47:17.069Z,88.13
2022-08-20T02:49:43.481Z,88.09
2022-08-20T02:52:09.901Z,88.47
2022-08-20T02:54:36.357Z,89.11
2022-08-20T02:57:03.680Z,89.27
2022-08-20T02:59:30.082Z,89.51
2022-08-20T03:02:00.625Z,89.06
2022-08-20T03:04:31.028Z,89.26
2022-08-20T03:06:58.621Z,88.90
2022-08-20T03:09:25.121Z,89.12
2022-08-20T03:11:52.181Z,89.31
2022-08-20T03:14:19.476Z,88.37
2022-08-20T03:16:45.873Z,87.47
2022-08-20T03:19:13.751Z,87.85
2022-08-20T03:21:40.181Z,87.76
2022-08-20T03:24:06.699Z,88.09
2022-08-20T03:26:33.146Z,87.88
2022-08-20T03:28:59.615Z,88.06
2022-08-20T03:31:26.023Z,88.39
2022-08-20T03:33:53.461Z,88.69
2022-08-20T03:36:28.731Z,88.28
2022-08-20T03:38:57.419Z,88.26
2022-08-20T03:41:24.316Z,87.76
2022-08-20T03:43:50.924Z,88.26
2022-08-20T03:46:23.123Z,88.08
2022-08-20T03:49:00.388Z,89.20
2022-08-20T03:53:52.688Z,89.47
2022-08-20T03:56:19.166Z,89.49
2022-08-20T03:58:46.349Z,89.50
2022-08-20T04:01:45.140Z,89.06
2022-08-20T04:03:59.407Z,89.50
2022-08-20T04:06:29.230Z,89.79
2022-08-20T04:08:56.305Z,89.81
2022-08-20T04:11:23.722Z,88.82
2022-08-20T04:13:50.361Z,88.50
2022-08-20T04:16:17.670Z,88.65
2022-08-20T04:19:01.401Z,88.31
2022-08-20T04:21:33.019Z,88.60
2022-08-20T04:24:02.023Z,88.47
2022-08-20T04:26:28.608Z,89.14
2022-08-20T04:28:55.634Z,88.80
2022-08-20T04:31:25.443Z,88.14
2022-08-20T04:33:52.569Z,87.55
2022-08-20T04:36:30.425Z,87.24
2022-08-20T04:39:00.596Z,87.26
2022-08-20T04:41:30.395Z,87.68
2022-08-20T04:43:59.772Z,87.59
2022-08-20T04:46:28.653Z,87.73
2022-08-20T04:48:55.726Z,87.75
2022-08-20T04:51:23.032Z,87.50
2022-08-20T04:53:53.414Z,86.98
2022-08-20T04:56:23.777Z,87.16
2022-08-20T04:58:52.382Z,86.61
2022-08-20T05:01:19.023Z,86.08
2022-08-20T05:03:47.632Z,86.44
2022-08-20T05:06:16.896Z,86.51
2022-08-20T05:08:44.277Z,86.76
2022-08-20T05:11:33.380Z,86.86
2022-08-20T05:14:03.790Z,86.56
2022-08-20T05:16:30.311Z,87.28
2022-08-20T05:18:56.858Z,87.43
2022-08-20T05:21:23.392Z,87.74
2022-08-20T05:23:49.862Z,88.35
2022-08-20T05:26:17.020Z,88.39
2022-08-20T05:28:57.748Z,88.16
2022-08-20T05:31:32.357Z,87.75
2022-08-20T05:34:01.662Z,88.04
2022-08-20T05:36:28.193Z,88.00
2022-08-20T05:38:54.704Z,88.24
2022-08-20T05:41:29.110Z,87.96
2022-08-20T05:44:01.101Z,87.58
2022-08-20T05:46:28.737Z,87.47
2022-08-20T05:48:55.174Z,87.49
2022-08-20T05:51:26.445Z,87.77
2022-08-20T05:53:52.855Z,87.07
2022-08-20T05:56:19.374Z,87.12
2022-08-20T05:58:53.092Z,87.24
2022-08-20T06:01:19.702Z,86.55
2022-08-20T06:04:04.758Z,86.43
2022-08-20T06:06:44.383Z,85.99
2022-08-20T06:09:13.680Z,85.69
2022-08-20T06:11:42.145Z,85.64
2022-08-20T06:14:08.632Z,85.69
2022-08-20T06:16:37.253Z,85.61
2022-08-20T06:19:04.653Z,85.04
2022-08-20T06:21:31.312Z,84.20
2022-08-20T06:24:01.016Z,84.09
2022-08-20T06:26:32.144Z,83.82
2022-08-20T06:29:01.431Z,82.97
2022-08-20T06:31:30.839Z,83.39
2022-08-20T06:33:59.422Z,83.07
2022-08-20T06:36:26.120Z,82.95
2022-08-20T06:38:54.919Z,81.59
2022-08-20T06:41:35.724Z,81.59
2022-08-20T06:44:03.501Z,81.21
2022-08-20T06:46:30.057Z,82.19
2022-08-20T06:48:56.801Z,81.37
2022-08-20T06:51:25.680Z,81.35
2022-08-20T06:53:53.849Z,81.09
2022-08-20T06:56:22.620Z,80.07
2022-08-20T06:58:49.622Z,80.91
2022-08-20T07:01:25.554Z,79.68
2022-08-20T07:03:57.813Z,79.74
2022-08-20T07:06:29.003Z,79.58
2022-08-20T07:08:57.853Z,78.46
2022-08-20T07:11:28.789Z,79.12
2022-08-20T07:13:58.938Z,76.92
2022-08-20T07:16:25.686Z,77.62
2022-08-20T07:18:52.149Z,77.76
2022-08-20T07:21:18.656Z,76.42
2022-08-20T07:23:47.384Z,73.74
2022-08-20T07:26:14.728Z,75.27
2022-08-20T07:28:41.239Z,73.50
2022-08-20T07:31:27.008Z,72.05
2022-08-20T07:33:55.861Z,70.85
2022-08-20T07:36:24.132Z,71.26
2022-08-20T07:38:52.485Z,72.34
2022-08-20T07:41:21.526Z,73.08
2022-08-20T07:43:50.912Z,70.49
2022-08-20T07:46:21.423Z,67.27
2022-08-20T07:48:51.471Z,66.89
2022-08-20T07:51:22.237Z,66.61
2022-08-20T07:53:54.024Z,67.04
2022-08-20T07:56:26.629Z,64.92
2022-08-20T07:58:56.213Z,63.24
2022-08-20T08:01:28.817Z,63.00
2022-08-20T08:03:56.890Z,65.78
2022-08-20T08:06:29.067Z,64.37
2022-08-20T08:08:57.894Z,62.25
2022-08-20T08:11:27.515Z,60.93
2022-08-20T08:14:03.019Z,58.86
2022-08-20T08:16:35.380Z,61.64
2022-08-20T08:19:05.020Z,61.73
2022-08-20T08:21:31.726Z,58.87
2022-08-20T08:23:58.431Z,57.77
2022-08-20T08:26:29.044Z,56.05
2022-08-20T08:28:56.118Z,55.39
2022-08-20T08:31:25.909Z,55.14
2022-08-20T08:33:52.857Z,54.28
2022-08-20T08:36:24.739Z,54.19
2022-08-20T08:38:54.576Z,53.75
2022-08-20T08:41:49.859Z,51.84
2022-08-20T08:44:37.779Z,52.69
2022-08-20T08:47:24.127Z,52.30
2022-08-20T08:49:50.836Z,51.20
2022-08-20T08:52:25.151Z,50.35
2022-08-20T08:54:59.476Z,50.24
2022-08-20T08:57:35.120Z,50.62
2022-08-20T09:00:12.236Z,47.26
2022-08-20T09:02:41.928Z,48.71
2022-08-20T09:05:15.061Z,44.84
2022-08-20T09:07:42.497Z,47.15
2022-08-20T09:10:09.419Z,45.63
2022-08-20T09:12:44.454Z,45.54
2022-08-20T09:15:15.047Z,42.59
2022-08-20T09:17:41.747Z,41.75
2022-08-20T09:20:09.938Z,41.13
2022-08-20T09:22:43.809Z,40.90
2022-08-20T09:25:22.603Z,40.30
2022-08-20T09:27:49.677Z,38.71
2022-08-20T09:30:21.182Z,41.52
2022-08-20T09:32:48.312Z,37.67
2022-08-20T09:35:17.873Z,37.70
2022-08-20T09:37:44.544Z,36.51
2022-08-20T09:40:16.029Z,35.97
2022-08-20T09:42:51.394Z,34.82
2022-08-20T09:45:21.223Z,32.84
2022-08-20T09:47:56.520Z,35.97
2022-08-20T09:50:26.307Z,36.83
2022-08-20T09:52:54.041Z,36.12
2022-08-20T09:55:36.734Z,34.03
2022-08-20T09:58:07.527Z,33.39
2022-08-20T10:00:34.131Z,34.05
2022-08-20T10:03:01.868Z,35.60
2022-08-20T10:05:28.268Z,34.12
2022-08-20T10:07:54.656Z,33.09
2022-08-20T10:10:21.083Z,34.84
2022-08-20T10:12:50.500Z,32.74
2022-08-20T10:15:19.315Z,33.54
2022-08-20T10:17:45.806Z,34.11
2022-08-20T10:20:14.583Z,35.93
2022-08-20T10:22:41.101Z,35.19
2022-08-20T10:25:08.388Z,35.88
2022-08-20T10:27:35.896Z,35.96
2022-08-20T10:30:05.015Z,35.93
2022-08-20T10:32:31.866Z,36.44
2022-08-20T10:34:58.302Z,36.95
2022-08-20T10:37:26.210Z,37.62
2022-08-20T10:39:53.537Z,38.35
2022-08-20T10:42:20.903Z,38.79
2022-08-20T10:44:47.351Z,38.49
2022-08-20T10:47:29.545Z,40.06
2022-08-20T10:49:57.498Z,40.14
2022-08-20T10:52:24.972Z,40.77
2022-08-20T10:54:52.164Z,40.24
2022-08-20T10:57:27.317Z,40.66
2022-08-20T10:59:55.556Z,40.07
2022-08-20T11:02:22.817Z,40.67
2022-08-20T11:04:50.071Z,40.81
2022-08-20T11:07:21.113Z,42.15
2022-08-20T11:10:13.480Z,41.91
2022-08-20T11:12:40.351Z,42.86
2022-08-20T11:15:09.432Z,42.32
2022-08-20T11:17:40.641Z,41.91
2022-08-20T11:20:08.466Z,41.49
2022-08-20T11:22:35.125Z,42.76
2022-08-20T11:25:01.553Z,44.21
2022-08-20T11:27:31.806Z,42.78
2022-08-20T11:29:58.440Z,43.62
2022-08-20T11:32:25.260Z,41.74
2022-08-20T11:34:51.992Z,40.94
2022-08-20T11:37:20.129Z,41.71
2022-08-20T11:39:46.855Z,42.05
2022-08-20T11:42:13.381Z,41.41
2022-08-20T11:44:39.771Z,43.16
2022-08-20T11:47:07.145Z,41.09
2022-08-20T11:49:35.046Z,40.41
2022-08-20T11:52:01.601Z,39.99
2022-08-20T11:54:29.085Z,41.47
2022-08-20T11:56:57.868Z,40.76
2022-08-20T11:59:25.319Z,40.71
2022-08-20T12:02:03.117Z,40.97
2022-08-20T12:04:33.655Z,39.72
2022-08-20T12:07:09.128Z,40.18
2022-08-20T12:09:36.834Z,40.63
2022-08-20T12:12:08.573Z,40.48
2022-08-20T12:14:35.103Z,40.72
2022-08-20T12:17:26.676Z,39.57
2022-08-20T12:19:54.474Z,40.22
2022-08-20T12:22:25.202Z,38.92
2022-08-20T12:24:53.277Z,39.82
2022-08-20T12:27:23.012Z,40.08
2022-08-20T12:29:53.194Z,39.67
2022-08-20T12:32:23.596Z,40.27
2022-08-20T12:34:50.340Z,41.33
2022-08-20T12:37:19.352Z,40.28
2022-08-20T12:39:50.022Z,40.42
2022-08-20T12:42:16.873Z,40.59
2022-08-20T12:44:43.557Z,40.29
2022-08-20T12:47:11.203Z,40.22
2022-08-20T12:49:39.463Z,40.25
2022-08-20T12:52:05.899Z,40.13
2022-08-20T12:54:32.575Z,41.14
2022-08-20T12:56:59.011Z,42.17
2022-08-20T12:59:26.268Z,40.70
2022-08-20T13:01:53.431Z,40.11
2022-08-20T13:04:20.206Z,41.22
2022-08-20T13:06:46.984Z,41.05
2022-08-20T13:09:13.859Z,41.75
2022-08-20T13:11:41.269Z,40.09
2022-08-20T13:14:07.658Z,39.24
2022-08-20T13:16:34.144Z,39.56
2022-08-20T13:19:00.689Z,39.58
2022-08-20T13:21:27.347Z,40.07
2022-08-20T13:23:53.880Z,40.46
2022-08-20T13:26:20.305Z,39.96
2022-08-20T13:28:46.823Z,38.70
2022-08-20T13:31:13.819Z,37.53
2022-08-20T13:33:40.196Z,36.96
2022-08-20T13:36:08.024Z,37.33
2022-08-20T13:38:34.464Z,37.25
2022-08-20T13:41:00.878Z,38.80
2022-08-20T13:43:27.275Z,38.77
2022-08-20T13:45:53.667Z,37.74
2022-08-20T13:48:20.059Z,38.25
2022-08-20T13:50:46.917Z,37.01
2022-08-20T13:53:13.848Z,37.46
2022-08-20T13:55:40.236Z,37.61
2022-08-20T13:58:07.610Z,35.06
2022-08-20T14:00:35.200Z,34.15
2022-08-20T14:03:02.852Z,35.37
2022-08-20T14:05:30.521Z,34.88
2022-08-20T14:08:11.892Z,34.17
2022-08-20T14:10:38.511Z,36.17
2022-08-20T14:13:06.825Z,36.69
2022-08-20T14:15:34.864Z,36.57
2022-08-20T14:18:01.672Z,37.04
2022-08-20T14:20:32.106Z,36.39
2022-08-20T14:22:59.826Z,34.63
2022-08-20T14:25:27.130Z,34.57
2022-08-20T14:27:54.439Z,36.00
2022-08-20T14:30:26.845Z,36.32
2022-08-20T14:32:53.671Z,36.66
2022-08-20T14:35:20.864Z,37.06
2022-08-20T14:37:53.181Z,36.40
2022-08-20T14:40:21.068Z,35.73
2022-08-20T14:42:51.644Z,36.36
2022-08-20T14:45:21.813Z,38.27
2022-08-20T14:47:54.256Z,38.89
2022-08-20T14:50:20.723Z,38.90
2022-08-20T14:52:47.232Z,37.83
2022-08-20T14:55:17.256Z,36.69
2022-08-20T14:57:44.067Z,37.03
2022-08-20T15:00:14.120Z,36.97
2022-08-20T15:02:41.204Z,37.04
2022-08-20T15:05:08.400Z,37.41
2022-08-20T15:07:38.050Z,37.66
2022-08-20T15:10:17.546Z,37.85
2022-08-20T15:12:43.997Z,36.42
2022-08-20T15:15:15.976Z,36.18
2022-08-20T15:17:45.184Z,35.44
2022-08-20T15:20:20.351Z,35.39
2022-08-20T15:22:47.877Z,35.98
2022-08-20T15:25:16.375Z,37.93
2022-08-20T15:27:43.043Z,39.31
2022-08-20T15:30:14.159Z,41.84
2022-08-20T15:32:40.652Z,40.83
2022-08-20T15:35:09.801Z,41.19
2022-08-20T15:37:38.451Z,40.87
2022-08-20T15:40:09.079Z,38.79
2022-08-20T15:42:36.254Z,39.36
2022-08-20T15:45:02.800Z,40.09
2022-08-20T15:47:34.476Z,39.39
2022-08-20T15:50:14.042Z,41.71
2022-08-20T15:52:43.193Z,42.84
2022-08-20T15:55:13.456Z,42.23
2022-08-20T15:57:50.113Z,41.07
2022-08-20T16:00:20.324Z,40.58
2022-08-20T16:03:08.824Z,41.50
2022-08-20T16:05:56.524Z,39.87
2022-08-20T16:08:41.721Z,40.68
2022-08-20T16:11:37.284Z,40.77
2022-08-20T16:14:11.384Z,40.06
2022-08-20T16:16:49.853Z,40.14
2022-08-20T16:19:29.078Z,38.85
2022-08-20T16:21:56.897Z,38.88
2022-08-20T16:24:23.963Z,39.70
2022-08-20T16:27:19.571Z,38.79
2022-08-20T16:29:53.703Z,38.68
2022-08-20T16:32:43.244Z,38.14
2022-08-20T16:35:47.472Z,39.86
2022-08-20T16:38:22.641Z,39.92
2022-08-20T16:40:56.442Z,40.53
2022-08-20T16:43:32.820Z,40.82
2022-08-20T16:46:03.880Z,40.97
2022-08-20T16:48:39.429Z,40.63
2022-08-20T16:51:14.576Z,40.70
2022-08-20T16:53:40.967Z,41.39
2022-08-20T16:56:07.557Z,41.22
2022-08-20T16:58:34.255Z,41.97
2022-08-20T17:01:13.680Z,43.10
2022-08-20T17:03:49.723Z,44.21
2022-08-20T17:06:26.059Z,45.94
2022-08-20T17:08:52.821Z,47.10
2022-08-20T17:11:25.351Z,47.64
2022-08-20T17:14:07.024Z,48.93
2022-08-20T17:16:35.267Z,50.06
2022-08-20T17:19:14.761Z,48.79
2022-08-20T17:21:41.933Z,49.48
2022-08-20T17:24:16.594Z,49.84
2022-08-20T17:26:47.016Z,49.84
2022-08-20T17:29:17.411Z,50.78
2022-08-20T17:31:46.863Z,49.93
2022-08-20T17:34:21.695Z,51.70
2022-08-20T17:36:57.105Z,51.25
2022-08-20T17:39:26.770Z,51.33
2022-08-20T17:42:09.552Z,51.31
2022-08-20T17:44:41.560Z,51.89
2022-08-20T17:47:13.265Z,52.41
2022-08-20T17:49:44.831Z,52.78
2022-08-20T17:52:36.036Z,53.46
2022-08-20T17:55:03.006Z,53.46
2022-08-20T17:57:33.591Z,53.81
2022-08-20T18:00:08.454Z,54.55
2022-08-20T18:02:36.931Z,54.16
2022-08-20T18:05:09.332Z,53.87
2022-08-20T18:07:45.023Z,55.74
2022-08-20T18:10:17.704Z,56.19
2022-08-20T18:12:51.645Z,56.28
2022-08-20T18:15:24.528Z,55.99
2022-08-20T18:18:25.633Z,56.77
2022-08-20T18:21:11.112Z,57.26
2022-08-20T18:23:41.292Z,56.30
2022-08-20T18:26:13.448Z,57.27
2022-08-20T18:28:50.261Z,57.82
2022-08-20T18:31:48.645Z,57.46
2022-08-20T18:34:21.320Z,56.76
2022-08-20T18:36:56.932Z,56.51
2022-08-20T18:39:31.857Z,56.93
2022-08-20T18:42:10.804Z,57.34
2022-08-20T18:44:44.063Z,57.65
2022-08-20T18:47:20.817Z,57.11
2022-08-20T18:50:18.432Z,57.97
2022-08-20T18:52:56.051Z,58.42
2022-08-20T18:55:39.066Z,59.32
2022-08-20T18:58:11.374Z,58.90
2022-08-20T19:00:49.102Z,59.84
2022-08-20T19:03:41.594Z,60.56
2022-08-20T19:06:15.273Z,61.42
2022-08-20T19:09:10.812Z,61.54
2022-08-20T19:11:57.517Z,62.46
2022-08-20T19:14:57.556Z,64.89
2022-08-20T19:17:43.885Z,64.33
2022-08-20T19:20:17.378Z,64.35
2022-08-20T19:22:44.705Z,63.57
2022-08-20T19:25:27.737Z,63.76
2022-08-20T19:27:55.162Z,62.84
2022-08-20T19:30:48.065Z,64.86
2022-08-20T19:33:14.812Z,63.67
2022-08-20T19:35:41.355Z,63.82
2022-08-20T19:38:15.788Z,64.25
2022-08-20T19:40:46.186Z,63.84
2022-08-20T19:43:16.938Z,64.17
2022-08-20T19:45:52.428Z,64.53
2022-08-20T19:48:43.025Z,65.57
2022-08-20T19:51:09.316Z,65.31
2022-08-20T19:53:37.111Z,65.57
2022-08-20T19:56:11.072Z,66.61
2022-08-20T19:58:37.835Z,66.12
2022-08-20T20:01:10.610Z,67.30
2022-08-20T20:03:40.473Z,66.47
2022-08-20T20:06:17.341Z,67.55
2022-08-20T20:09:07.035Z,68.20
2022-08-20T20:11:36.297Z,66.97
2022-08-20T20:14:11.930Z,67.92
2022-08-20T20:16:39.829Z,67.78
2022-08-20T20:19:28.496Z,67.74
2022-08-20T20:22:18.820Z,68.78
2022-08-20T20:25:03.688Z,68.83
2022-08-20T20:27:32.030Z,68.71
2022-08-20T20:30:05.583Z,69.90
2022-08-20T20:32:33.915Z,69.93
2022-08-20T20:35:04.024Z,70.02
2022-08-20T20:37:49.333Z,69.87
2022-08-20T20:40:26.775Z,70.20
2022-08-20T20:43:07.289Z,69.48
2022-08-20T20:45:42.136Z,69.46
2022-08-20T20:48:21.189Z,69.58
2022-08-20T20:50:48.898Z,69.59
2022-08-20T20:53:50.866Z,70.31
2022-08-20T20:56:36.486Z,71.88
2022-08-20T20:59:06.867Z,70.97
2022-08-20T21:01:49.115Z,70.70
2022-08-20T21:04:19.944Z,71.53
2022-08-20T21:06:46.336Z,72.52
2022-08-20T21:09:12.943Z,71.90
2022-08-20T21:11:39.340Z,72.35
2022-08-20T21:14:05.784Z,72.51
2022-08-20T21:16:32.202Z,71.73
2022-08-20T21:18:58.595Z,72.71
2022-08-20T21:21:25.033Z,72.04
2022-08-20T21:23:51.416Z,71.63
2022-08-20T21:26:18.069Z,71.51
2022-08-20T21:28:44.490Z,71.71
2022-08-20T21:31:10.909Z,71.82
2022-08-20T21:33:37.308Z,71.51
2022-08-20T21:36:04.018Z,71.69
2022-08-20T21:38:30.453Z,71.92
2022-08-20T21:40:58.073Z,71.82
2022-08-20T21:43:24.714Z,72.31
2022-08-20T21:45:51.197Z,72.22
2022-08-20T21:48:17.614Z,72.33
2022-08-20T21:50:44.021Z,73.26
2022-08-20T21:53:12.888Z,73.28
2022-08-20T21:55:40.105Z,73.20
2022-08-20T21:58:06.606Z,73.24
2022-08-20T22:00:58.749Z,73.80
2022-08-20T22:03:28.330Z,73.66
2022-08-20T22:05:55.960Z,74.08
2022-08-20T22:08:26.117Z,73.92
2022-08-20T22:10:54.915Z,73.87
2022-08-20T22:13:22.093Z,74.16
2022-08-20T22:15:48.652Z,74.14
2022-08-20T22:18:16.169Z,74.42
2022-08-20T22:20:42.994Z,74.91
2022-08-20T22:23:09.833Z,74.62
2022-08-20T22:25:36.966Z,74.65
2022-08-20T22:28:03.549Z,74.91
2022-08-20T22:30:30.210Z,75.18
2022-08-20T22:33:04.500Z,75.41
2022-08-20T22:35:31.664Z,75.50
2022-08-20T22:37:58.205Z,74.90
2022-08-20T22:40:24.908Z,75.51
2022-08-20T22:42:51.317Z,75.38
2022-08-20T22:45:17.906Z,75.66
2022-08-20T22:47:44.364Z,75.66
2022-08-20T22:50:12.469Z,75.66
2022-08-20T22:52:41.968Z,75.66
2022-08-20T22:55:09.538Z,75.92
2022-08-20T22:57:37.185Z,75.70
2022-08-20T23:00:13.391Z,75.99
2022-08-20T23:02:40.801Z,76.95
2022-08-20T23:05:08.405Z,77.09
2022-08-20T23:07:34.796Z,77.26
2022-08-20T23:10:01.200Z,77.61
2022-08-20T23:12:27.694Z,77.69
2022-08-20T23:14:54.813Z,77.78
2022-08-20T23:17:21.266Z,77.67
2022-08-20T23:19:48.857Z,77.83
2022-08-20T23:22:15.356Z,78.21
2022-08-20T23:24:41.972Z,77.91
2022-08-20T23:27:10.415Z,77.77
2022-08-20T23:29:36.820Z,77.67
2022-08-20T23:32:03.816Z,77.46
2022-08-20T23:34:30.421Z,77.26
2022-08-20T23:36:57.144Z,76.95
2022-08-20T23:39:24.710Z,76.38
2022-08-20T23:41:51.111Z,76.41
2022-08-20T23:44:25.685Z,76.57
2022-08-20T23:46:54.602Z,78.37
2022-08-20T23:49:21.400Z,77.97
2022-08-20T23:51:47.821Z,77.85
2022-08-20T23:54:14.266Z,77.94
2022-08-20T23:56:40.734Z,78.03
2022-08-20T23:59:07.125Z,77.57
